Main page


Airports :

Ottawa, Ontario, Canada

Ottawa Macdonald–Cartier International Airport

latitude: 45-19N, longitude: 075-40W, elevation: 116 m

Current weather observation

The report was made 26 minutes ago, at 23:00 UTC
Wind 7 kt from the Northwest
Temperature 4°C
Humidity 48%
Pressure 1015 hPa
Visibility: 24.1 km
Few clouds at a height of 20000 ft
Broken clouds at a height of 25000 ft

METAR: CYOW 222300Z 32007KT 15SM FEW200 BKN250 04/M06 A2998 RMK CI1CI4 SLP158

Time: 19:26 (23:26 UTC)


The report was made 2 hours and 48 minutes ago, at 20:38 UTC
Forecast valid from 22 at 21 UTC to 23 at 18 UTC
Wind 10 kt from the West
Visibility: 10 km
Few clouds at a height of 17000 ft
Few clouds at a height of 22000 ft
From 23 at 0000 UTC
Wind 12 kt from the Northwest
Visibility: 10 km
Broken clouds at a height of 4000 ft

TAF: CYOW 222038Z 2221/2318 28010KT P6SM FEW170 FEW220 FM230000 32012KT P6SM BKN040 RMK NXT FCST BY 230000Z

Weather observations and forecasts of more than 4000 airports (METAR and TAF reports).

The available stations are represented by yellow and red dots on the map.

Hover mouse over dot to see the name of the station.

Then click to see weather observations and forecasts.

To change the map : click on the green buttons with a black cross to zoom in, on the green button with a dash to zoom out, or on the green arrows for adjacent maps.